Collinwood, Tennessee
Current Conditions -  °F | °C
As of 8:15 AM on Friday 31 Oct 2014 (Local Time) from KSNH Reporting Station
Broken Clouds Broken Clouds  
Wind Chill: 46°   Ceiling: 5000
Heat Index: 46°   Visibility: 8mi
Dew Point: 46°   Wind: 0mph
Humidity: 100%   Direction: NA
Pressure: 30.02"   Gusts: NA
Location:  35.17°N, 87.74°W
Report Text: KSNH 311315Z AUTO 00000KT 8SM BKN050 08/08 A3002 RMK
Loading
Personal Weather Stations






























Interactive Weather Map
Tropical Storm Tracking
New forecast layout! Learn more

10-Day Weather Forecast

Advertisements
Track Severe Weather on mobile